createdAt,value
2019-01-26T00:00:45.526Z,996.67
2019-01-26T00:01:45.454Z,996.65
2019-01-26T00:02:45.456Z,996.61
2019-01-26T00:03:45.458Z,996.52
2019-01-26T00:04:45.545Z,996.55
2019-01-26T00:05:45.462Z,996.49
2019-01-26T00:06:45.519Z,996.51
2019-01-26T00:07:45.539Z,996.48
2019-01-26T00:08:45.531Z,996.50
2019-01-26T00:09:45.537Z,996.51
2019-01-26T00:10:45.463Z,996.53
2019-01-26T00:11:45.546Z,996.54
2019-01-26T00:12:45.476Z,996.49
2019-01-26T00:13:45.552Z,996.49
2019-01-26T00:14:45.460Z,996.43
2019-01-26T00:15:45.629Z,996.41
2019-01-26T00:16:45.467Z,996.42
2019-01-26T00:17:45.543Z,996.40
2019-01-26T00:18:45.536Z,996.39
2019-01-26T00:19:45.483Z,996.36
2019-01-26T00:20:45.548Z,996.32
2019-01-26T00:21:45.480Z,996.37
2019-01-26T00:22:45.550Z,996.34
2019-01-26T00:23:45.541Z,996.32
2019-01-26T00:24:45.545Z,996.32
2019-01-26T00:25:45.481Z,996.33
2019-01-26T00:26:45.546Z,996.32
2019-01-26T00:27:45.427Z,996.28
2019-01-26T00:28:45.506Z,996.30
2019-01-26T00:29:45.471Z,996.28
2019-01-26T00:30:45.548Z,996.28
2019-01-26T00:31:45.476Z,996.28
2019-01-26T00:32:45.550Z,996.26
2019-01-26T00:33:45.558Z,996.23
2019-01-26T00:34:45.552Z,996.20
2019-01-26T00:35:45.494Z,996.20
2019-01-26T00:36:45.483Z,996.21
2019-01-26T00:37:45.550Z,996.28
2019-01-26T00:38:45.445Z,996.23
2019-01-26T00:39:45.550Z,996.25
2019-01-26T00:40:45.494Z,996.27
2019-01-26T00:41:45.481Z,996.29
2019-01-26T00:42:45.484Z,996.32
2019-01-26T00:43:45.535Z,996.35
2019-01-26T00:44:45.442Z,996.34
2019-01-26T00:45:45.445Z,996.34
2019-01-26T00:46:45.422Z,996.27
2019-01-26T00:47:45.425Z,996.28
2019-01-26T00:48:45.531Z,996.25
2019-01-26T00:49:45.494Z,996.27
2019-01-26T00:50:45.426Z,996.20
2019-01-26T00:51:45.449Z,996.22
2019-01-26T00:52:45.539Z,996.20
2019-01-26T00:53:45.550Z,996.20
2019-01-26T00:54:45.552Z,996.21
2019-01-26T00:55:45.483Z,996.21
2019-01-26T00:56:45.559Z,996.25
2019-01-26T00:57:45.553Z,996.25
2019-01-26T00:58:45.480Z,996.25
2019-01-26T00:59:45.559Z,996.21
2019-01-26T01:00:45.487Z,996.27
2019-01-26T01:01:45.557Z,996.27
2019-01-26T01:02:45.486Z,996.27
2019-01-26T01:03:45.557Z,996.26
2019-01-26T01:04:45.490Z,996.23
2019-01-26T01:05:45.557Z,996.22
2019-01-26T01:06:45.489Z,996.21
2019-01-26T01:07:45.623Z,996.18
2019-01-26T01:08:45.491Z,996.21
2019-01-26T01:09:45.597Z,996.16
2019-01-26T01:10:45.562Z,996.19
2019-01-26T01:11:45.563Z,996.13
2019-01-26T01:12:45.493Z,996.13
2019-01-26T01:13:45.573Z,996.09
2019-01-26T01:14:45.504Z,996.12
2019-01-26T01:15:45.504Z,996.14
2019-01-26T01:16:45.579Z,996.13
2019-01-26T01:17:45.613Z,996.10
2019-01-26T01:18:45.579Z,996.13
2019-01-26T01:19:45.577Z,996.13
2019-01-26T01:20:45.546Z,996.15
2019-01-26T01:21:45.628Z,996.15
2019-01-26T01:22:45.541Z,996.17
2019-01-26T01:23:45.616Z,996.15
2019-01-26T01:24:45.451Z,996.19
2019-01-26T01:25:45.469Z,996.17
2019-01-26T01:26:45.507Z,996.13
2019-01-26T01:27:45.515Z,996.15
2019-01-26T01:28:45.562Z,996.15
2019-01-26T01:29:45.576Z,996.10
2019-01-26T01:30:45.563Z,996.11
2019-01-26T01:31:45.471Z,996.05
2019-01-26T01:32:45.543Z,996.12
2019-01-26T01:33:45.575Z,996.12
2019-01-26T01:34:45.557Z,996.07
2019-01-26T01:35:45.581Z,996.02
2019-01-26T01:36:45.503Z,995.99
2019-01-26T01:37:45.584Z,995.99
2019-01-26T01:38:45.582Z,996.00
2019-01-26T01:39:45.513Z,996.01
2019-01-26T01:40:45.511Z,995.99
2019-01-26T01:41:45.582Z,996.00
2019-01-26T01:42:45.589Z,996.01
2019-01-26T01:43:45.533Z,996.01
2019-01-26T01:44:45.598Z,995.96
2019-01-26T01:45:45.600Z,995.98
2019-01-26T01:46:45.685Z,996.02
2019-01-26T01:47:45.632Z,995.98
2019-01-26T01:48:45.527Z,995.97
2019-01-26T01:49:45.605Z,995.98
2019-01-26T01:50:45.562Z,995.96
2019-01-26T01:51:45.544Z,995.93
2019-01-26T01:52:45.529Z,995.89
2019-01-26T01:53:45.598Z,995.92
2019-01-26T01:54:45.609Z,995.89
2019-01-26T01:55:45.565Z,995.88
2019-01-26T01:56:45.601Z,995.85
2019-01-26T01:57:45.605Z,995.84
2019-01-26T01:58:45.597Z,995.85
2019-01-26T01:59:45.603Z,995.81
2019-01-26T02:00:45.537Z,995.82
2019-01-26T02:01:45.604Z,995.81
2019-01-26T02:02:45.545Z,995.78
2019-01-26T02:03:45.552Z,995.77
2019-01-26T02:04:45.610Z,995.72
2019-01-26T02:05:45.536Z,995.72
2019-01-26T02:06:45.544Z,995.70
2019-01-26T02:07:45.547Z,995.69
2019-01-26T02:08:45.541Z,995.78
2019-01-26T02:09:45.542Z,995.76
2019-01-26T02:10:45.611Z,995.72
2019-01-26T02:11:45.547Z,995.74
2019-01-26T02:12:45.627Z,995.72
2019-01-26T02:13:45.537Z,995.70
2019-01-26T02:14:45.609Z,995.64
2019-01-26T02:15:45.538Z,995.67
2019-01-26T02:16:50.005Z,995.67
2019-01-26T02:17:45.611Z,995.66
2019-01-26T02:18:45.542Z,995.65
2019-01-26T02:19:45.612Z,995.63
2019-01-26T02:20:45.614Z,995.62
2019-01-26T02:21:45.541Z,995.60
2019-01-26T02:22:45.609Z,995.62
2019-01-26T02:23:45.621Z,995.56
2019-01-26T02:24:45.625Z,995.57
2019-01-26T02:25:45.637Z,995.56
2019-01-26T02:26:45.559Z,995.58
2019-01-26T02:27:45.627Z,995.60
2019-01-26T02:28:45.558Z,995.59
2019-01-26T02:29:45.565Z,995.57
2019-01-26T02:30:45.560Z,995.53
2019-01-26T02:31:45.558Z,995.59
2019-01-26T02:32:45.572Z,995.60
2019-01-26T02:33:45.647Z,995.53
2019-01-26T02:34:45.514Z,995.56
2019-01-26T02:35:45.614Z,995.58
2019-01-26T02:36:45.636Z,995.56
2019-01-26T02:37:45.569Z,995.54
2019-01-26T02:38:45.633Z,995.58
2019-01-26T02:39:45.604Z,995.61
2019-01-26T02:40:45.569Z,995.55
2019-01-26T02:41:45.646Z,995.51
2019-01-26T02:42:45.632Z,995.48
2019-01-26T02:43:45.627Z,995.47
2019-01-26T02:44:45.557Z,995.47
2019-01-26T02:45:45.632Z,995.47
2019-01-26T02:46:45.564Z,995.52
2019-01-26T02:47:45.716Z,995.52
2019-01-26T02:48:45.650Z,995.53
2019-01-26T02:49:45.559Z,995.52
2019-01-26T02:50:45.631Z,995.48
2019-01-26T02:51:45.561Z,995.55
2019-01-26T02:52:45.634Z,995.49
2019-01-26T02:53:45.605Z,995.50
2019-01-26T02:54:45.580Z,995.47
2019-01-26T02:55:45.654Z,995.44
2019-01-26T02:56:45.578Z,995.48
2019-01-26T02:57:45.644Z,995.49
2019-01-26T02:58:45.656Z,995.49
2019-01-26T02:59:45.580Z,995.45
2019-01-26T03:00:45.601Z,995.49
2019-01-26T03:01:45.646Z,995.51
2019-01-26T03:02:45.650Z,995.51
2019-01-26T03:03:45.547Z,995.49
2019-01-26T03:04:45.591Z,995.55
2019-01-26T03:05:45.587Z,995.49
2019-01-26T03:06:45.522Z,995.53
2019-01-26T03:07:45.631Z,995.50
2019-01-26T03:08:45.637Z,995.47
2019-01-26T03:09:45.637Z,995.44
2019-01-26T03:10:45.566Z,995.42
2019-01-26T03:11:45.646Z,995.38
2019-01-26T03:12:45.593Z,995.38
2019-01-26T03:13:45.587Z,995.37
2019-01-26T03:14:45.656Z,995.40
2019-01-26T03:15:45.665Z,995.38
2019-01-26T03:16:45.617Z,995.33
2019-01-26T03:17:45.592Z,995.36
2019-01-26T03:18:45.591Z,995.39
2019-01-26T03:19:45.595Z,995.38
2019-01-26T03:20:45.597Z,995.36
2019-01-26T03:21:45.603Z,995.32
2019-01-26T03:22:45.592Z,995.26
2019-01-26T03:23:45.671Z,995.27
2019-01-26T03:24:45.602Z,995.24
2019-01-26T03:25:45.605Z,995.21
2019-01-26T03:26:45.609Z,995.15
2019-01-26T03:27:45.606Z,995.15
2019-01-26T03:28:45.623Z,995.15
2019-01-26T03:29:45.676Z,995.11
2019-01-26T03:30:45.606Z,995.13
2019-01-26T03:31:45.678Z,995.06
2019-01-26T03:32:45.626Z,995.09
2019-01-26T03:33:45.594Z,995.08
2019-01-26T03:34:45.590Z,995.12
2019-01-26T03:35:45.617Z,995.12
2019-01-26T03:36:45.589Z,995.12
2019-01-26T03:37:45.613Z,995.10
2019-01-26T03:38:45.600Z,995.15
2019-01-26T03:39:45.565Z,995.16
2019-01-26T03:40:45.594Z,995.15
2019-01-26T03:41:45.497Z,995.14
2019-01-26T03:42:45.552Z,995.20
2019-01-26T03:43:45.635Z,995.15
2019-01-26T03:44:45.671Z,995.13
2019-01-26T03:45:45.632Z,995.10
2019-01-26T03:46:45.617Z,995.17
2019-01-26T03:47:45.582Z,995.18
2019-01-26T03:48:45.600Z,995.15
2019-01-26T03:49:45.572Z,995.20
2019-01-26T03:50:45.617Z,995.20
2019-01-26T03:51:45.622Z,995.18
2019-01-26T03:52:45.582Z,995.18
2019-01-26T03:53:45.691Z,995.19
2019-01-26T03:54:45.684Z,995.16
2019-01-26T03:55:45.660Z,995.13
2019-01-26T03:56:45.618Z,995.12
2019-01-26T03:57:45.695Z,995.09
2019-01-26T03:58:45.689Z,995.07
2019-01-26T03:59:45.627Z,995.06
2019-01-26T04:00:45.584Z,995.02
2019-01-26T04:01:45.621Z,995.01
2019-01-26T04:02:45.626Z,995.05
2019-01-26T04:03:45.672Z,995.07
2019-01-26T04:04:45.590Z,995.07
2019-01-26T04:05:45.679Z,995.08
2019-01-26T04:06:45.653Z,995.07
2019-01-26T04:07:45.651Z,995.06
2019-01-26T04:08:45.634Z,995.06
2019-01-26T04:09:45.657Z,995.05
2019-01-26T04:10:45.615Z,995.06
2019-01-26T04:11:45.718Z,995.06
2019-01-26T04:12:45.623Z,995.00
2019-01-26T04:13:45.630Z,994.98
2019-01-26T04:14:45.694Z,995.02
2019-01-26T04:15:45.634Z,994.97
2019-01-26T04:16:45.692Z,994.94
2019-01-26T04:17:45.709Z,994.96
2019-01-26T04:18:45.700Z,994.95
2019-01-26T04:19:45.625Z,994.95
2019-01-26T04:20:45.695Z,994.97
2019-01-26T04:21:45.630Z,994.98
2019-01-26T04:22:45.697Z,994.94
2019-01-26T04:23:45.683Z,994.88
2019-01-26T04:24:45.582Z,994.88
2019-01-26T04:25:45.602Z,994.91
2019-01-26T04:26:45.579Z,994.86
2019-01-26T04:27:45.640Z,994.85
2019-01-26T04:28:45.766Z,994.82
2019-01-26T04:29:45.603Z,994.83
2019-01-26T04:30:45.608Z,994.84
2019-01-26T04:31:45.610Z,994.77
2019-01-26T04:32:45.689Z,994.78
2019-01-26T04:33:45.715Z,994.81
2019-01-26T04:34:45.662Z,994.80
2019-01-26T04:35:45.650Z,994.82
2019-01-26T04:36:45.730Z,994.78
2019-01-26T04:37:45.654Z,994.73
2019-01-26T04:38:45.716Z,994.83
2019-01-26T04:39:45.650Z,994.84
2019-01-26T04:40:45.718Z,994.79
2019-01-26T04:41:45.690Z,994.76
2019-01-26T04:42:45.658Z,994.77
2019-01-26T04:43:45.690Z,994.75
2019-01-26T04:44:45.660Z,994.70
2019-01-26T04:45:45.750Z,994.70
2019-01-26T04:46:45.675Z,994.71
2019-01-26T04:47:45.545Z,994.72
2019-01-26T04:48:45.664Z,994.71
2019-01-26T04:49:45.741Z,994.72
2019-01-26T04:50:45.654Z,994.72
2019-01-26T04:51:45.658Z,994.70
2019-01-26T04:52:45.661Z,994.66
2019-01-26T04:53:45.598Z,994.67
2019-01-26T04:54:45.687Z,994.68
2019-01-26T04:55:45.708Z,994.66
2019-01-26T04:56:45.711Z,994.65
2019-01-26T04:57:45.685Z,994.66
2019-01-26T04:58:45.680Z,994.62
2019-01-26T04:59:45.633Z,994.68
2019-01-26T05:00:45.603Z,994.68
2019-01-26T05:01:45.713Z,994.70
2019-01-26T05:02:45.594Z,994.70
2019-01-26T05:03:45.668Z,994.71
2019-01-26T05:04:45.677Z,994.69
2019-01-26T05:05:45.748Z,994.73
2019-01-26T05:06:45.733Z,994.71
2019-01-26T05:07:45.671Z,994.75
2019-01-26T05:08:45.674Z,994.74
2019-01-26T05:09:45.783Z,994.74
2019-01-26T05:10:45.762Z,994.67
2019-01-26T05:11:45.809Z,994.67
2019-01-26T05:12:45.740Z,994.70
2019-01-26T05:13:45.640Z,994.73
2019-01-26T05:14:45.733Z,994.72
2019-01-26T05:15:45.724Z,994.77
2019-01-26T05:16:45.726Z,994.78
2019-01-26T05:17:45.768Z,994.76
2019-01-26T05:18:45.616Z,994.78
2019-01-26T05:19:45.680Z,994.72
2019-01-26T05:20:45.636Z,994.72
2019-01-26T05:21:45.635Z,994.71
2019-01-26T05:22:45.687Z,994.73
2019-01-26T05:23:45.646Z,994.75
2019-01-26T05:24:45.681Z,994.76
2019-01-26T05:25:45.756Z,994.70
2019-01-26T05:26:45.685Z,994.71
2019-01-26T05:27:45.712Z,994.75
2019-01-26T05:28:45.756Z,994.73
2019-01-26T05:29:45.686Z,994.74
2019-01-26T05:30:45.685Z,994.81
2019-01-26T05:31:45.761Z,994.74
2019-01-26T05:32:45.753Z,994.67
2019-01-26T05:33:45.684Z,994.63
2019-01-26T05:34:45.692Z,994.66
2019-01-26T05:35:45.764Z,994.63
2019-01-26T05:36:45.758Z,994.64
2019-01-26T05:37:45.699Z,994.65
2019-01-26T05:38:45.702Z,994.65
2019-01-26T05:39:45.691Z,994.67
2019-01-26T05:40:45.769Z,994.70
2019-01-26T05:41:45.693Z,994.69
2019-01-26T05:42:45.704Z,994.70
2019-01-26T05:43:45.761Z,994.66
2019-01-26T05:44:45.680Z,994.64
2019-01-26T05:45:45.767Z,994.59
2019-01-26T05:46:45.680Z,994.64
2019-01-26T05:47:48.808Z,994.57
2019-01-26T05:48:45.680Z,994.57
2019-01-26T05:49:45.764Z,994.60
2019-01-26T05:50:45.756Z,994.56
2019-01-26T05:51:45.762Z,994.54
2019-01-26T05:52:45.686Z,994.51
2019-01-26T05:53:45.764Z,994.52
2019-01-26T05:54:45.770Z,994.52
2019-01-26T05:55:45.766Z,994.51
2019-01-26T05:56:45.706Z,994.46
2019-01-26T05:57:45.716Z,994.46
2019-01-26T05:58:45.785Z,994.46
2019-01-26T05:59:45.705Z,994.45
2019-01-26T06:00:45.776Z,994.45
2019-01-26T06:01:45.707Z,994.47
2019-01-26T06:02:45.785Z,994.47
2019-01-26T06:03:45.720Z,994.45
2019-01-26T06:04:45.713Z,994.41
2019-01-26T06:05:45.779Z,994.42
2019-01-26T06:06:45.719Z,994.36
2019-01-26T06:07:45.710Z,994.30
2019-01-26T06:08:45.715Z,994.35
2019-01-26T06:09:45.784Z,994.35
2019-01-26T06:10:45.785Z,994.35
2019-01-26T06:11:45.793Z,994.35
2019-01-26T06:12:45.727Z,994.35
2019-01-26T06:13:45.712Z,994.35
2019-01-26T06:14:45.719Z,994.35
2019-01-26T06:15:45.786Z,994.35
2019-01-26T06:16:45.796Z,994.35
2019-01-26T06:17:45.718Z,994.35
2019-01-26T06:18:45.724Z,994.35
2019-01-26T06:19:45.793Z,994.35
2019-01-26T06:20:45.737Z,994.35
2019-01-26T06:21:45.761Z,994.35
2019-01-26T06:22:45.744Z,994.35
2019-01-26T06:23:46.847Z,994.35
2019-01-26T06:24:45.764Z,994.35
2019-01-26T06:25:45.709Z,994.35
2019-01-26T06:26:45.723Z,994.35
2019-01-26T06:27:45.737Z,994.35
2019-01-26T06:28:45.646Z,994.35
2019-01-26T06:29:45.657Z,994.35
2019-01-26T06:30:45.652Z,994.35
2019-01-26T06:31:45.684Z,994.35
2019-01-26T06:32:45.743Z,994.35
2019-01-26T06:33:45.714Z,994.35
2019-01-26T06:34:45.742Z,994.35
2019-01-26T06:35:45.732Z,994.35
2019-01-26T06:36:45.740Z,994.35
2019-01-26T06:37:45.702Z,994.35
2019-01-26T06:38:45.808Z,994.35
2019-01-26T06:39:45.731Z,994.35
2019-01-26T06:40:45.734Z,994.35
2019-01-26T06:41:45.805Z,994.35
2019-01-26T06:42:45.812Z,994.35
2019-01-26T06:43:45.867Z,994.35
2019-01-26T06:44:45.762Z,994.35
2019-01-26T06:45:45.669Z,994.35
2019-01-26T06:46:45.735Z,994.35
2019-01-26T06:47:45.687Z,994.35
2019-01-26T06:48:45.791Z,994.35
2019-01-26T06:49:45.789Z,994.35
2019-01-26T06:50:45.760Z,994.35
2019-01-26T06:51:45.785Z,994.35
2019-01-26T06:52:45.774Z,994.35
2019-01-26T06:53:45.795Z,994.35
2019-01-26T06:54:45.868Z,994.35
2019-01-26T06:55:45.830Z,994.35
2019-01-26T06:56:45.821Z,994.35
2019-01-26T06:57:45.757Z,994.35
2019-01-26T06:58:45.748Z,994.35
2019-01-26T06:59:45.762Z,994.35
2019-01-26T07:00:45.767Z,994.35
2019-01-26T07:01:45.819Z,994.35
2019-01-26T07:02:45.754Z,994.35
2019-01-26T07:03:46.171Z,994.35
2019-01-26T07:04:45.720Z,994.35
2019-01-26T07:05:45.795Z,994.35
2019-01-26T07:06:45.719Z,994.35
2019-01-26T07:07:45.716Z,994.35
2019-01-26T07:08:45.719Z,994.35
2019-01-26T07:09:45.716Z,994.35
2019-01-26T07:10:45.722Z,994.35
2019-01-26T07:11:45.809Z,994.35
2019-01-26T07:12:45.819Z,994.35
2019-01-26T07:13:45.696Z,994.35
2019-01-26T07:14:45.817Z,994.35
2019-01-26T07:15:45.703Z,994.35
2019-01-26T07:16:45.820Z,994.35
2019-01-26T07:17:45.788Z,994.35
2019-01-26T07:18:45.817Z,994.35
2019-01-26T07:19:45.820Z,994.35
2019-01-26T07:20:45.762Z,994.35
2019-01-26T07:21:45.818Z,994.35
2019-01-26T07:22:45.732Z,994.35
2019-01-26T07:23:45.817Z,994.35
2019-01-26T07:24:45.785Z,994.35
2019-01-26T07:25:45.776Z,994.35
2019-01-26T07:26:45.816Z,994.35
2019-01-26T07:27:45.705Z,994.35
2019-01-26T07:28:45.790Z,994.35
2019-01-26T07:29:45.817Z,994.35
2019-01-26T07:30:45.812Z,994.35
2019-01-26T07:31:45.707Z,994.35
2019-01-26T07:32:45.758Z,994.35
2019-01-26T07:33:45.824Z,994.35
2019-01-26T07:34:45.760Z,994.35
2019-01-26T07:35:45.756Z,994.35
2019-01-26T07:36:45.832Z,994.35
2019-01-26T07:37:45.836Z,994.35
2019-01-26T07:38:45.769Z,994.35
2019-01-26T07:39:45.843Z,994.35
2019-01-26T07:40:45.833Z,994.35
2019-01-26T07:41:45.835Z,994.35
2019-01-26T07:42:45.765Z,994.35
2019-01-26T07:43:45.843Z,994.35
2019-01-26T07:44:45.782Z,994.35
2019-01-26T07:45:45.849Z,994.35
2019-01-26T07:46:45.790Z,994.35
2019-01-26T07:47:45.785Z,994.35
2019-01-26T07:48:45.782Z,994.35
2019-01-26T07:49:45.785Z,994.35
2019-01-26T07:50:45.862Z,994.35
2019-01-26T07:51:45.855Z,994.35
2019-01-26T07:52:45.797Z,994.35
2019-01-26T07:53:47.281Z,994.35
2019-01-26T07:54:45.791Z,994.35
2019-01-26T07:55:45.751Z,994.35
2019-01-26T07:56:45.797Z,994.35
2019-01-26T07:57:45.842Z,994.35
2019-01-26T07:58:45.808Z,994.35
2019-01-26T07:59:45.841Z,994.35
2019-01-26T08:00:45.760Z,994.35
2019-01-26T08:01:45.842Z,994.35
2019-01-26T08:02:45.778Z,994.35
2019-01-26T08:03:45.863Z,994.35
2019-01-26T08:04:45.854Z,994.35
2019-01-26T08:05:45.761Z,994.35
2019-01-26T08:06:45.844Z,994.35
2019-01-26T08:07:45.763Z,994.35
2019-01-26T08:08:45.796Z,994.35
2019-01-26T08:09:45.854Z,994.35
2019-01-26T08:10:45.815Z,994.35
2019-01-26T08:11:45.854Z,994.35
2019-01-26T08:12:45.747Z,994.35
2019-01-26T08:13:45.799Z,994.35
2019-01-26T08:14:45.802Z,994.35
2019-01-26T08:15:45.890Z,994.35
2019-01-26T08:16:45.797Z,994.35
2019-01-26T08:17:45.890Z,994.35
2019-01-26T08:18:45.865Z,994.35
2019-01-26T08:19:45.804Z,994.35
2019-01-26T08:20:45.875Z,994.35
2019-01-26T08:21:45.798Z,994.35
2019-01-26T08:22:46.002Z,994.35
2019-01-26T08:23:45.871Z,994.35
2019-01-26T08:24:45.790Z,994.35
2019-01-26T08:25:45.791Z,994.35
2019-01-26T08:26:45.788Z,994.35
2019-01-26T08:27:45.840Z,994.35
2019-01-26T08:28:45.871Z,994.35
2019-01-26T08:29:45.796Z,994.35
2019-01-26T08:30:45.833Z,994.35
2019-01-26T08:31:45.864Z,994.35
2019-01-26T08:32:45.805Z,994.35
2019-01-26T08:33:45.816Z,994.35
2019-01-26T08:34:45.815Z,994.35
2019-01-26T08:35:45.873Z,994.35
2019-01-26T08:36:45.811Z,994.35
2019-01-26T08:37:45.896Z,994.35
2019-01-26T08:38:45.882Z,994.35
2019-01-26T08:39:45.819Z,994.35
2019-01-26T08:40:45.882Z,994.35
2019-01-26T08:41:45.815Z,994.35
2019-01-26T08:42:45.890Z,994.35
2019-01-26T08:43:45.822Z,994.35
2019-01-26T08:44:45.886Z,994.35
2019-01-26T08:45:45.821Z,994.35
2019-01-26T08:46:45.885Z,994.35
2019-01-26T08:47:45.877Z,994.35
2019-01-26T08:48:45.892Z,994.35
2019-01-26T08:49:45.826Z,994.35
2019-01-26T08:50:45.888Z,994.35
2019-01-26T08:51:45.821Z,994.35
2019-01-26T08:52:45.829Z,994.35
2019-01-26T08:53:45.893Z,994.35
2019-01-26T08:54:45.853Z,994.35
2019-01-26T08:55:45.927Z,994.35
2019-01-26T08:56:45.902Z,994.35
2019-01-26T08:57:45.824Z,994.35
2019-01-26T08:58:45.826Z,994.35
2019-01-26T08:59:45.893Z,994.35
2019-01-26T09:00:45.824Z,994.35
2019-01-26T09:01:45.897Z,994.35
2019-01-26T09:02:45.847Z,994.35
2019-01-26T09:03:45.897Z,994.35
2019-01-26T09:04:45.859Z,994.35
2019-01-26T09:05:45.876Z,994.35
2019-01-26T09:06:45.854Z,994.35
2019-01-26T09:07:45.766Z,994.35
2019-01-26T09:08:45.891Z,994.35
2019-01-26T09:09:45.884Z,994.35
2019-01-26T09:10:45.767Z,994.35
2019-01-26T09:11:45.796Z,994.35
2019-01-26T09:12:45.769Z,994.35
2019-01-26T09:13:45.763Z,994.35
2019-01-26T09:14:45.830Z,994.35
2019-01-26T09:15:45.805Z,994.35
2019-01-26T09:16:45.781Z,994.35
2019-01-26T09:17:45.828Z,994.35
2019-01-26T09:18:45.774Z,994.35
2019-01-26T09:19:45.801Z,994.35
2019-01-26T09:20:45.775Z,994.35
2019-01-26T09:21:45.862Z,994.35
2019-01-26T09:22:45.775Z,994.35
2019-01-26T09:23:45.886Z,994.35
2019-01-26T09:24:45.848Z,994.35
2019-01-26T09:25:45.913Z,994.35
2019-01-26T09:26:45.911Z,994.35
2019-01-26T09:27:45.918Z,994.35
2019-01-26T09:28:45.922Z,994.35
2019-01-26T09:29:45.852Z,994.35
2019-01-26T09:30:45.918Z,994.35
2019-01-26T09:31:45.850Z,994.35
2019-01-26T09:32:45.853Z,994.35
2019-01-26T09:33:45.851Z,994.35
2019-01-26T09:34:45.770Z,994.35
2019-01-26T09:35:45.819Z,994.35
2019-01-26T09:36:45.938Z,994.35
2019-01-26T09:37:45.868Z,994.35
2019-01-26T09:38:45.800Z,994.35
2019-01-26T09:39:45.822Z,994.35
2019-01-26T09:40:45.866Z,994.35
2019-01-26T09:41:45.875Z,994.35
2019-01-26T09:42:45.824Z,994.35
2019-01-26T09:43:45.831Z,994.35
2019-01-26T09:44:45.859Z,994.35
2019-01-26T09:45:45.927Z,994.35
2019-01-26T09:46:45.874Z,994.35
2019-01-26T09:47:45.945Z,994.35
2019-01-26T09:48:46.388Z,994.35
2019-01-26T09:49:45.928Z,994.35
2019-01-26T09:50:45.865Z,994.35
2019-01-26T09:51:45.934Z,994.35
2019-01-26T09:52:45.874Z,994.35
2019-01-26T09:53:45.863Z,994.35
2019-01-26T09:54:45.813Z,994.35
2019-01-26T09:55:45.873Z,994.35
2019-01-26T09:56:45.875Z,994.35
2019-01-26T09:57:45.840Z,994.35
2019-01-26T09:58:45.821Z,994.35
2019-01-26T09:59:45.851Z,994.35
2019-01-26T10:00:45.932Z,994.35
2019-01-26T10:01:45.843Z,994.35
2019-01-26T10:02:45.863Z,994.35
2019-01-26T10:03:45.824Z,994.35
2019-01-26T10:04:45.873Z,994.35
2019-01-26T10:05:45.944Z,994.35
2019-01-26T10:06:46.004Z,994.35
2019-01-26T10:07:45.941Z,994.35
2019-01-26T10:08:45.943Z,994.35
2019-01-26T10:09:45.876Z,994.35
2019-01-26T10:10:45.947Z,994.35
2019-01-26T10:11:45.878Z,994.35
2019-01-26T10:12:45.955Z,994.35
2019-01-26T10:13:45.943Z,994.35
2019-01-26T10:14:45.875Z,994.35
2019-01-26T10:15:45.949Z,994.35
2019-01-26T10:16:45.880Z,994.35
2019-01-26T10:17:46.285Z,994.35
2019-01-26T10:18:45.945Z,994.35
2019-01-26T10:19:45.956Z,994.35
2019-01-26T10:20:45.951Z,994.35
2019-01-26T10:21:45.884Z,994.35
2019-01-26T10:22:45.989Z,994.35
2019-01-26T10:23:45.951Z,994.35
2019-01-26T10:24:45.894Z,994.35
2019-01-26T10:25:48.740Z,994.35
2019-01-26T10:26:45.848Z,994.35
2019-01-26T10:27:45.878Z,994.35
2019-01-26T10:28:45.941Z,994.35
2019-01-26T10:29:45.912Z,994.35
2019-01-26T10:30:45.850Z,994.35
2019-01-26T10:31:45.915Z,994.35
2019-01-26T10:32:45.826Z,994.35
2019-01-26T10:33:45.940Z,994.35
2019-01-26T10:34:45.890Z,994.35
2019-01-26T10:35:45.964Z,994.35
2019-01-26T10:36:45.968Z,994.35
2019-01-26T10:37:45.906Z,994.35
2019-01-26T10:38:45.963Z,994.35
2019-01-26T10:39:46.123Z,994.35
2019-01-26T10:40:45.896Z,994.35
2019-01-26T10:41:45.968Z,994.35
2019-01-26T10:42:45.973Z,994.35
2019-01-26T10:43:45.896Z,994.35
2019-01-26T10:44:45.962Z,994.35
2019-01-26T10:45:45.902Z,994.35
2019-01-26T10:46:45.968Z,994.35
2019-01-26T10:47:45.911Z,994.35
2019-01-26T10:48:45.971Z,994.35
2019-01-26T10:49:45.995Z,994.35
2019-01-26T10:50:45.926Z,994.35
2019-01-26T10:51:45.977Z,994.35
2019-01-26T10:52:45.975Z,994.35
2019-01-26T10:53:45.906Z,994.35
2019-01-26T10:54:45.906Z,994.35
2019-01-26T10:55:45.989Z,994.35
2019-01-26T10:56:45.914Z,994.35
2019-01-26T10:57:45.906Z,994.35
2019-01-26T10:58:45.982Z,994.35
2019-01-26T10:59:45.912Z,994.35
2019-01-26T11:00:45.908Z,994.35
2019-01-26T11:01:45.982Z,994.35
2019-01-26T11:02:45.978Z,994.35
2019-01-26T11:03:45.914Z,994.35
2019-01-26T11:04:45.912Z,994.35
2019-01-26T11:05:45.979Z,994.35
2019-01-26T11:06:45.916Z,994.35
2019-01-26T11:07:45.981Z,994.35
2019-01-26T11:08:45.923Z,994.35
2019-01-26T11:09:45.998Z,994.35
2019-01-26T11:10:45.917Z,994.35
2019-01-26T11:11:45.985Z,994.35
2019-01-26T11:12:45.924Z,994.35
2019-01-26T11:13:45.919Z,994.35
2019-01-26T11:14:45.989Z,994.35
2019-01-26T11:15:45.925Z,994.35
2019-01-26T11:16:45.925Z,994.35
2019-01-26T11:17:45.991Z,994.35
2019-01-26T11:18:45.933Z,994.35
2019-01-26T11:19:46.000Z,994.35
2019-01-26T11:20:45.998Z,994.35
2019-01-26T11:21:45.928Z,994.35
2019-01-26T11:22:45.995Z,994.35
2019-01-26T11:23:45.927Z,994.35
2019-01-26T11:24:45.937Z,994.35
2019-01-26T11:25:45.852Z,994.35
2019-01-26T11:26:49.374Z,994.35
2019-01-26T11:27:45.950Z,994.35
2019-01-26T11:28:45.903Z,994.35
2019-01-26T11:29:45.854Z,994.35
2019-01-26T11:30:45.906Z,994.35
2019-01-26T11:31:45.864Z,994.35
2019-01-26T11:32:45.947Z,994.35
2019-01-26T11:33:45.859Z,994.35
2019-01-26T11:34:45.947Z,994.35
2019-01-26T11:35:46.000Z,994.35
2019-01-26T11:36:45.997Z,994.35
2019-01-26T11:37:45.908Z,994.35
2019-01-26T11:38:45.998Z,994.35
2019-01-26T11:39:45.896Z,994.35
2019-01-26T11:40:45.960Z,994.35
2019-01-26T11:41:46.000Z,994.35
2019-01-26T11:42:45.929Z,994.35
2019-01-26T11:43:45.958Z,994.35
2019-01-26T11:44:47.473Z,994.35
2019-01-26T11:45:45.945Z,994.35
2019-01-26T11:46:46.007Z,994.35
2019-01-26T11:47:45.947Z,994.35
2019-01-26T11:48:45.946Z,994.35
2019-01-26T11:49:45.954Z,994.35
2019-01-26T11:50:46.033Z,994.35
2019-01-26T11:51:45.945Z,994.35
2019-01-26T11:52:45.947Z,994.35
2019-01-26T11:53:46.016Z,994.35
2019-01-26T11:54:45.951Z,994.35
2019-01-26T11:55:45.983Z,994.35
2019-01-26T11:56:45.995Z,994.35
2019-01-26T11:57:45.959Z,994.35
2019-01-26T11:58:45.888Z,994.35
2019-01-26T11:59:45.890Z,994.35
2019-01-26T12:00:45.919Z,994.35
2019-01-26T12:01:46.001Z,994.35
2019-01-26T12:02:45.950Z,994.35
2019-01-26T12:03:45.958Z,994.35
2019-01-26T12:04:45.910Z,994.35
2019-01-26T12:05:46.021Z,994.35
2019-01-26T12:06:45.953Z,994.35
2019-01-26T12:07:45.949Z,994.35
2019-01-26T12:08:45.980Z,994.35
2019-01-26T12:09:45.930Z,994.35
2019-01-26T12:10:46.024Z,994.35
2019-01-26T12:11:46.011Z,994.35
2019-01-26T12:12:46.018Z,994.35
2019-01-26T12:13:46.035Z,994.35
2019-01-26T12:14:46.023Z,994.35
2019-01-26T12:15:45.949Z,994.35
2019-01-26T12:16:45.983Z,994.35
2019-01-26T12:17:46.019Z,994.35
2019-01-26T12:18:46.017Z,994.35
2019-01-26T12:19:45.982Z,994.35
2019-01-26T12:20:46.027Z,994.35
2019-01-26T12:21:46.021Z,994.35
2019-01-26T12:22:46.001Z,994.35
2019-01-26T12:23:45.967Z,994.35
2019-01-26T12:24:45.956Z,994.35
2019-01-26T12:25:45.974Z,994.35
2019-01-26T12:26:46.025Z,994.35
2019-01-26T12:27:45.934Z,994.35
2019-01-26T12:28:46.054Z,994.35